Time;durP1;ratioP1;P1;durP2;ratioP2;P2;SDS_P1;SDS_P2;PMS_P1;PMS_P2;Temp;Humidity;BMP_temperature;BMP_pressure;BME280_temperature;BME280_humidity;BME280_pressure;Samples;Min_cycle;Max_cycle;Signal;HPM_P1;HPM_P2
2021/11/24 00:00:40;;;;;;;;;;;6.00;99.90;;;;;;5074391;28;19919;-77
2021/11/24 00:03:06;;;;;;;;;;;6.00;99.90;;;;;;5061820;28;19919;-77
2021/11/24 00:05:31;;;;;;;;;;;5.90;99.90;;;;;;5071360;28;19982;-77
2021/11/24 00:07:58;;;;;;;;;;;5.90;99.90;;;;;;5061308;28;19912;-77
2021/11/24 00:10:24;;;;;;;;;;;5.90;99.90;;;;;;5063630;28;19916;-77
2021/11/24 00:12:50;;;;;;;;;;;5.90;99.90;;;;;;5078223;28;19916;-76
2021/11/24 00:15:15;;;;;;;;;;;5.90;99.90;;;;;;5067709;28;20728;-77
2021/11/24 00:17:41;;;;;;;;;;;6.00;99.90;;;;;;5075235;28;20033;-77
2021/11/24 00:20:07;;;;;;;;;;;6.00;99.90;;;;;;5066288;28;20358;-77
2021/11/24 00:22:33;;;;;;;;;;;6.00;99.90;;;;;;5075317;28;20030;-78
2021/11/24 00:24:58;;;;;;;;;;;5.90;99.90;;;;;;5072773;28;19916;-78
2021/11/24 00:27:24;;;;;;;;;;;5.90;99.90;;;;;;5069054;28;20208;-77
2021/11/24 00:29:50;;;;;;;;;;;6.00;99.90;;;;;;5067002;28;20370;-77
2021/11/24 00:32:18;;;;;;;;;;;6.10;99.90;;;;;;5071292;28;19916;-77
2021/11/24 00:34:44;;;;;;;;;;;6.10;99.90;;;;;;5077368;28;20657;-77
2021/11/24 00:37:10;;;;;;;;;;;6.10;99.90;;;;;;5069923;28;19917;-78
2021/11/24 00:39:36;;;;;;;;;;;6.20;99.90;;;;;;5081385;28;20011;-77
2021/11/24 00:42:03;;;;;;;;;;;6.20;99.90;;;;;;5066455;28;20007;-77
2021/11/24 00:44:29;;;;;;;;;;;6.20;99.90;;;;;;5072097;28;19917;-77
2021/11/24 00:46:55;;;;;;;;;;;6.10;99.90;;;;;;5069145;28;19919;-78
2021/11/24 00:49:21;;;;;;;;;;;6.10;99.90;;;;;;5071604;28;19932;-77
2021/11/24 00:51:46;;;;;;;;;;;6.10;99.90;;;;;;5067441;28;19921;-77
2021/11/24 00:54:12;;;;;;;;;;;6.20;99.90;;;;;;5074835;28;20218;-77
2021/11/24 00:56:37;;;;;;;;;;;6.10;99.90;;;;;;5073471;28;21245;-77
2021/11/24 00:59:04;;;;;;;;;;;6.10;99.90;;;;;;5070043;28;19916;-77
2021/11/24 01:01:29;;;;;;;;;;;6.20;99.90;;;;;;5068026;28;20310;-77
2021/11/24 01:03:55;;;;;;;;;;;6.30;99.90;;;;;;5077973;28;19917;-78
2021/11/24 01:06:20;;;;;;;;;;;6.20;99.90;;;;;;5064353;28;19916;-77
2021/11/24 01:08:46;;;;;;;;;;;6.20;99.90;;;;;;5071413;28;19956;-76
2021/11/24 01:11:12;;;;;;;;;;;6.20;99.90;;;;;;5069623;28;19917;-77
2021/11/24 01:13:37;;;;;;;;;;;6.30;99.90;;;;;;5067625;28;20007;-78
2021/11/24 01:16:03;;;;;;;;;;;6.20;99.90;;;;;;5067966;28;20298;-77
2021/11/24 01:18:28;;;;;;;;;;;6.30;99.90;;;;;;5073255;28;20281;-77
2021/11/24 01:20:54;;;;;;;;;;;6.20;99.90;;;;;;5071454;28;19967;-77
2021/11/24 01:23:20;;;;;;;;;;;6.30;99.90;;;;;;5078618;28;19912;-77
2021/11/24 01:25:45;;;;;;;;;;;6.40;99.90;;;;;;5071180;28;19927;-77
2021/11/24 01:28:11;;;;;;;;;;;6.40;99.90;;;;;;5071182;28;19912;-77
2021/11/24 01:30:37;;;;;;;;;;;6.40;99.90;;;;;;5072072;28;20307;-77
2021/11/24 01:33:03;;;;;;;;;;;6.30;99.90;;;;;;5076160;28;19921;-77
2021/11/24 01:35:29;;;;;;;;;;;6.30;99.90;;;;;;5073308;28;20311;-78
2021/11/24 01:37:54;;;;;;;;;;;6.30;99.90;;;;;;5066455;28;19970;-77
2021/11/24 01:40:20;;;;;;;;;;;6.30;99.90;;;;;;5071117;28;19917;-77
2021/11/24 01:42:46;;;;;;;;;;;6.40;99.90;;;;;;5062614;28;19925;-77
2021/11/24 01:45:14;;;;;;;;;;;6.40;99.90;;;;;;5075423;28;19922;-77
2021/11/24 01:47:43;;;;;;;;;;;6.40;99.90;;;;;;5072316;28;20207;-77
2021/11/24 01:50:09;;;;;;;;;;;6.40;99.90;;;;;;5071996;28;19923;-77
2021/11/24 01:52:34;;;;;;;;;;;6.40;99.90;;;;;;5078107;28;19924;-77
2021/11/24 01:55:00;;;;;;;;;;;6.40;99.90;;;;;;5069900;28;19977;-78
2021/11/24 01:57:28;;;;;;;;;;;6.40;99.90;;;;;;5073857;28;20412;-78
2021/11/24 01:59:56;;;;;;;;;;;6.40;99.90;;;;;;5073127;28;19921;-77
2021/11/24 02:02:21;;;;;;;;;;;6.40;99.90;;;;;;5074176;28;19918;-78
2021/11/24 02:04:47;;;;;;;;;;;6.40;99.90;;;;;;5080771;28;19922;-78
2021/11/24 02:07:12;;;;;;;;;;;6.30;99.90;;;;;;5077911;28;20238;-78
2021/11/24 02:09:38;;;;;;;;;;;6.40;99.90;;;;;;5073947;28;20295;-77
2021/11/24 02:12:04;;;;;;;;;;;6.50;99.90;;;;;;5067664;28;19920;-77
2021/11/24 02:14:29;;;;;;;;;;;6.40;99.90;;;;;;5070047;28;19927;-78
2021/11/24 02:16:55;;;;;;;;;;;6.40;99.90;;;;;;5070637;28;19916;-77
2021/11/24 02:19:22;;;;;;;;;;;6.40;99.90;;;;;;5070808;28;20220;-77
2021/11/24 02:21:48;;;;;;;;;;;6.40;99.90;;;;;;5067505;28;19920;-78
2021/11/24 02:24:15;;;;;;;;;;;6.40;99.90;;;;;;5073930;28;19947;-77
2021/11/24 02:26:40;;;;;;;;;;;6.40;99.90;;;;;;5075759;28;19919;-77
2021/11/24 02:29:06;;;;;;;;;;;6.50;99.90;;;;;;5077227;28;19916;-77
2021/11/24 02:31:32;;;;;;;;;;;6.60;99.90;;;;;;5063634;28;20390;-78
2021/11/24 02:33:57;;;;;;;;;;;6.50;99.90;;;;;;5066757;28;19967;-77
2021/11/24 02:36:23;;;;;;;;;;;6.40;99.90;;;;;;5073573;28;19951;-77
2021/11/24 02:38:49;;;;;;;;;;;6.40;99.90;;;;;;5073888;28;19948;-79
2021/11/24 02:41:15;;;;;;;;;;;6.40;99.90;;;;;;5078163;28;19963;-77
2021/11/24 02:43:40;;;;;;;;;;;6.40;99.90;;;;;;5060531;28;19912;-77
2021/11/24 02:46:06;;;;;;;;;;;6.40;99.90;;;;;;5073779;28;19966;-77
2021/11/24 02:48:32;;;;;;;;;;;6.40;99.90;;;;;;5067669;28;20325;-78
2021/11/24 02:50:57;;;;;;;;;;;6.40;99.90;;;;;;5066155;28;19912;-77
2021/11/24 02:53:27;;;;;;;;;;;6.50;99.90;;;;;;5071760;28;19916;-77
2021/11/24 02:55:53;;;;;;;;;;;6.40;99.90;;;;;;5074008;28;20014;-78
2021/11/24 02:58:19;;;;;;;;;;;6.40;99.90;;;;;;5073478;28;19917;-77
2021/11/24 03:00:44;;;;;;;;;;;6.40;99.90;;;;;;5071675;28;19923;-77
2021/11/24 03:03:10;;;;;;;;;;;6.40;99.90;;;;;;5073678;28;19913;-77
2021/11/24 03:05:36;;;;;;;;;;;6.40;99.90;;;;;;5068608;28;20003;-77
2021/11/24 03:08:01;;;;;;;;;;;6.50;99.90;;;;;;5072494;28;20284;-77
2021/11/24 03:10:27;;;;;;;;;;;6.50;99.90;;;;;;5075837;28;19952;-77
2021/11/24 03:12:53;;;;;;;;;;;6.50;99.90;;;;;;5066289;28;19959;-77
2021/11/24 03:15:18;;;;;;;;;;;6.50;99.90;;;;;;5059706;28;19947;-77
2021/11/24 03:17:44;;;;;;;;;;;6.50;99.90;;;;;;5058161;28;20481;-78
2021/11/24 03:20:13;;;;;;;;;;;6.50;99.90;;;;;;5074490;28;19917;-77
2021/11/24 03:22:39;;;;;;;;;;;6.50;99.90;;;;;;5068693;28;20326;-78
2021/11/24 03:25:05;;;;;;;;;;;6.50;99.90;;;;;;5084624;28;20389;-77
2021/11/24 03:27:33;;;;;;;;;;;6.50;99.90;;;;;;5072195;28;19916;-78
2021/11/24 03:29:59;;;;;;;;;;;6.50;99.90;;;;;;5072108;28;20303;-77
2021/11/24 03:32:25;;;;;;;;;;;6.50;99.90;;;;;;5075205;28;20463;-77
2021/11/24 03:34:51;;;;;;;;;;;6.50;99.90;;;;;;5072713;28;19924;-77
2021/11/24 03:37:19;;;;;;;;;;;6.50;99.90;;;;;;5065600;28;20330;-78
2021/11/24 03:39:46;;;;;;;;;;;6.60;99.90;;;;;;5080704;28;20043;-78
2021/11/24 03:42:11;;;;;;;;;;;6.60;99.90;;;;;;5057876;28;19925;-78
2021/11/24 03:44:37;;;;;;;;;;;6.60;99.90;;;;;;5074741;28;20350;-77
2021/11/24 03:47:03;;;;;;;;;;;6.50;99.90;;;;;;5060897;28;20230;-77
2021/11/24 03:49:29;;;;;;;;;;;6.60;99.90;;;;;;5066692;28;19953;-77
2021/11/24 03:51:55;;;;;;;;;;;6.70;99.90;;;;;;5077298;28;19948;-77
2021/11/24 03:54:20;;;;;;;;;;;6.70;99.90;;;;;;5064967;28;19924;-77
2021/11/24 03:56:46;;;;;;;;;;;6.70;99.90;;;;;;5070456;28;19916;-79
2021/11/24 03:59:11;;;;;;;;;;;6.70;99.90;;;;;;5065824;28;19966;-78
2021/11/24 04:01:37;;;;;;;;;;;6.70;99.90;;;;;;5066347;28;19919;-77
2021/11/24 04:04:03;;;;;;;;;;;6.70;99.90;;;;;;5075517;28;19912;-78
2021/11/24 04:06:29;;;;;;;;;;;6.50;99.90;;;;;;5051359;28;19913;-78
2021/11/24 04:08:55;;;;;;;;;;;6.50;99.90;;;;;;5071893;28;19920;-78
2021/11/24 04:11:21;;;;;;;;;;;6.50;99.90;;;;;;5072311;28;19947;-78
2021/11/24 04:13:46;;;;;;;;;;;6.60;99.90;;;;;;5078686;28;20303;-78
2021/11/24 04:16:12;;;;;;;;;;;6.60;99.90;;;;;;5070483;28;19991;-78
2021/11/24 04:18:38;;;;;;;;;;;6.70;99.90;;;;;;5069835;28;20373;-78
2021/11/24 04:21:03;;;;;;;;;;;6.70;99.90;;;;;;5069169;28;19912;-78
2021/11/24 04:23:29;;;;;;;;;;;6.60;99.90;;;;;;5072801;28;19916;-78
2021/11/24 04:25:54;;;;;;;;;;;6.60;99.90;;;;;;5067301;28;19932;-78
2021/11/24 04:28:20;;;;;;;;;;;6.70;99.90;;;;;;5076567;28;20226;-78
2021/11/24 04:30:46;;;;;;;;;;;6.70;99.90;;;;;;5072156;28;19924;-78
2021/11/24 04:33:11;;;;;;;;;;;6.70;99.90;;;;;;5073042;28;19924;-78
2021/11/24 04:35:38;;;;;;;;;;;6.70;99.90;;;;;;5072664;28;19916;-79
2021/11/24 04:38:04;;;;;;;;;;;6.70;99.90;;;;;;5071114;28;19923;-78
2021/11/24 04:40:29;;;;;;;;;;;6.70;99.90;;;;;;5063525;28;19908;-78
2021/11/24 04:42:55;;;;;;;;;;;6.60;99.90;;;;;;5072286;28;20207;-78
2021/11/24 04:45:21;;;;;;;;;;;6.60;99.90;;;;;;5071240;28;20031;-78
2021/11/24 04:47:47;;;;;;;;;;;6.50;99.90;;;;;;5057175;28;19916;-78
2021/11/24 04:50:13;;;;;;;;;;;6.50;99.90;;;;;;5071553;28;19923;-78
2021/11/24 04:52:39;;;;;;;;;;;6.60;99.90;;;;;;5069816;28;19919;-77
2021/11/24 04:55:05;;;;;;;;;;;6.60;99.90;;;;;;5072737;28;19924;-78
2021/11/24 04:57:31;;;;;;;;;;;6.60;99.90;;;;;;5077243;28;19966;-82
2021/11/24 04:59:56;;;;;;;;;;;6.60;99.90;;;;;;5070153;28;19913;-77
2021/11/24 05:02:22;;;;;;;;;;;6.60;99.90;;;;;;5074807;28;20295;-78
2021/11/24 05:04:47;;;;;;;;;;;6.60;99.90;;;;;;5073429;28;20367;-77
2021/11/24 05:07:13;;;;;;;;;;;6.50;99.90;;;;;;5071049;28;20011;-77
2021/11/24 05:09:39;;;;;;;;;;;6.50;99.90;;;;;;5073935;28;19913;-77
2021/11/24 05:12:04;;;;;;;;;;;6.60;99.90;;;;;;5074417;28;20377;-77
2021/11/24 05:14:34;;;;;;;;;;;6.60;99.90;;;;;;5084513;28;19920;-77
2021/11/24 05:17:03;;;;;;;;;;;6.50;99.90;;;;;;5067685;28;19917;-77
2021/11/24 05:19:31;;;;;;;;;;;6.60;99.90;;;;;;5077466;28;19924;-77
2021/11/24 05:21:57;;;;;;;;;;;6.60;99.90;;;;;;5072541;28;19952;-77
2021/11/24 05:24:23;;;;;;;;;;;6.60;99.90;;;;;;5079913;28;19916;-77
2021/11/24 05:26:49;;;;;;;;;;;6.60;99.90;;;;;;5083113;28;19916;-77
2021/11/24 05:29:15;;;;;;;;;;;6.60;99.90;;;;;;5069250;28;19916;-77
2021/11/24 05:31:40;;;;;;;;;;;6.50;99.90;;;;;;5074663;28;20196;-77
2021/11/24 05:34:06;;;;;;;;;;;6.50;99.90;;;;;;5077896;28;19973;-77
2021/11/24 05:36:31;;;;;;;;;;;6.50;99.90;;;;;;5065877;28;19920;-77
2021/11/24 05:38:57;;;;;;;;;;;6.50;99.90;;;;;;5074463;28;19920;-77
2021/11/24 05:41:22;;;;;;;;;;;6.50;99.90;;;;;;5078711;28;19963;-77
2021/11/24 05:43:51;;;;;;;;;;;6.60;99.90;;;;;;5068838;28;19916;-77
2021/11/24 05:46:29;;;;;;;;;;;6.60;99.90;;;;;;5070595;28;19913;-77
2021/11/24 05:48:55;;;;;;;;;;;6.60;99.90;;;;;;5072221;28;19920;-78
2021/11/24 05:51:21;;;;;;;;;;;6.60;99.90;;;;;;5071402;28;20230;-77
2021/11/24 05:53:46;;;;;;;;;;;6.60;99.90;;;;;;5070919;28;19912;-77
2021/11/24 05:56:12;;;;;;;;;;;6.60;99.90;;;;;;5083289;28;19913;-77
2021/11/24 05:58:38;;;;;;;;;;;6.50;99.90;;;;;;5070069;28;19917;-77
2021/11/24 06:01:03;;;;;;;;;;;6.50;99.90;;;;;;5082111;28;19916;-77
2021/11/24 06:03:29;;;;;;;;;;;6.60;99.90;;;;;;5058668;28;19923;-77
2021/11/24 06:05:55;;;;;;;;;;;6.70;99.90;;;;;;5068183;28;20032;-76
2021/11/24 06:08:20;;;;;;;;;;;6.60;99.90;;;;;;5069978;28;19974;-76
2021/11/24 06:10:46;;;;;;;;;;;6.60;99.90;;;;;;5069198;28;20329;-77
2021/11/24 06:13:11;;;;;;;;;;;6.60;99.90;;;;;;5069608;28;19967;-77
2021/11/24 06:15:37;;;;;;;;;;;6.70;99.90;;;;;;5069645;28;19916;-77
2021/11/24 06:18:03;;;;;;;;;;;6.70;99.90;;;;;;5070633;28;19974;-76
2021/11/24 06:20:28;;;;;;;;;;;6.80;99.90;;;;;;5068502;28;19994;-77
2021/11/24 06:22:54;;;;;;;;;;;6.80;99.90;;;;;;5071679;28;19920;-77
2021/11/24 06:25:20;;;;;;;;;;;6.80;99.90;;;;;;5070545;28;19974;-77
2021/11/24 06:27:45;;;;;;;;;;;6.80;99.90;;;;;;5068313;28;20422;-77
2021/11/24 06:30:13;;;;;;;;;;;6.80;99.90;;;;;;5063282;28;19921;-77
2021/11/24 06:32:39;;;;;;;;;;;6.80;99.90;;;;;;5068522;28;19920;-77
2021/11/24 06:35:04;;;;;;;;;;;6.70;99.90;;;;;;5063729;28;19982;-77
2021/11/24 06:37:30;;;;;;;;;;;6.70;99.90;;;;;;5070052;28;20192;-77
2021/11/24 06:39:56;;;;;;;;;;;6.70;99.90;;;;;;5063201;28;20323;-77
2021/11/24 06:42:21;;;;;;;;;;;6.70;99.90;;;;;;5065817;28;19917;-77
2021/11/24 06:44:47;;;;;;;;;;;6.70;99.90;;;;;;5069881;28;19916;-77
2021/11/24 06:47:14;;;;;;;;;;;6.60;99.90;;;;;;5065428;28;19994;-77
2021/11/24 06:49:43;;;;;;;;;;;6.70;99.90;;;;;;5065317;28;19917;-77
2021/11/24 06:52:09;;;;;;;;;;;6.70;99.90;;;;;;5067687;28;20320;-77
2021/11/24 06:54:35;;;;;;;;;;;6.70;99.90;;;;;;5069570;28;19931;-76
2021/11/24 06:57:00;;;;;;;;;;;6.70;99.90;;;;;;5067872;28;19943;-77
2021/11/24 06:59:26;;;;;;;;;;;6.70;99.90;;;;;;5066861;28;19991;-76
2021/11/24 07:01:51;;;;;;;;;;;6.70;99.90;;;;;;5069057;28;19921;-77
2021/11/24 07:04:17;;;;;;;;;;;6.70;99.90;;;;;;5067129;28;19920;-76
2021/11/24 07:06:42;;;;;;;;;;;6.60;99.90;;;;;;5066742;28;19962;-77
2021/11/24 07:09:12;;;;;;;;;;;6.70;99.90;;;;;;5081749;28;20329;-76
2021/11/24 07:11:38;;;;;;;;;;;6.70;99.90;;;;;;5074481;28;19913;-77
2021/11/24 07:14:04;;;;;;;;;;;6.70;99.90;;;;;;5072258;28;19920;-76
2021/11/24 07:16:29;;;;;;;;;;;6.80;99.90;;;;;;5070007;28;20007;-77
2021/11/24 07:18:55;;;;;;;;;;;6.80;99.90;;;;;;5043946;28;20345;-76
2021/11/24 07:21:20;;;;;;;;;;;6.80;99.90;;;;;;5066286;28;19920;-76
2021/11/24 07:23:46;;;;;;;;;;;6.80;99.90;;;;;;5081214;28;19926;-77
2021/11/24 07:26:12;;;;;;;;;;;6.80;99.90;;;;;;5067193;28;20019;-76
2021/11/24 07:28:38;;;;;;;;;;;6.90;99.90;;;;;;5069122;28;19927;-76
2021/11/24 07:31:03;;;;;;;;;;;6.90;99.90;;;;;;5065146;28;19920;-76
2021/11/24 07:33:29;;;;;;;;;;;6.80;99.90;;;;;;5065670;28;19927;-77
2021/11/24 07:35:54;;;;;;;;;;;6.80;99.90;;;;;;5065893;28;20378;-76
2021/11/24 07:38:20;;;;;;;;;;;6.80;99.90;;;;;;5065437;28;19987;-76
2021/11/24 07:40:46;;;;;;;;;;;6.80;99.90;;;;;;5064202;28;20334;-76
2021/11/24 07:43:12;;;;;;;;;;;6.90;99.90;;;;;;5064716;28;20303;-76
2021/11/24 07:45:38;;;;;;;;;;;6.90;99.90;;;;;;5064546;28;20569;-76
2021/11/24 07:48:04;;;;;;;;;;;7.00;99.90;;;;;;5064714;28;19920;-76
2021/11/24 07:50:29;;;;;;;;;;;6.90;99.90;;;;;;5067963;28;19912;-77
2021/11/24 07:52:55;;;;;;;;;;;6.90;99.90;;;;;;5063181;28;19920;-76
2021/11/24 07:55:21;;;;;;;;;;;6.90;99.90;;;;;;5064286;28;19927;-76
2021/11/24 07:57:46;;;;;;;;;;;6.90;99.90;;;;;;5061843;28;19916;-76
2021/11/24 08:00:12;;;;;;;;;;;6.90;99.90;;;;;;5066538;28;19966;-76
2021/11/24 08:02:39;;;;;;;;;;;7.00;99.90;;;;;;5063440;28;19931;-75
2021/11/24 08:05:05;;;;;;;;;;;7.00;99.90;;;;;;5070478;28;20243;-77
2021/11/24 08:07:36;;;;;;;;;;;7.00;99.90;;;;;;5063557;28;19921;-77
2021/11/24 08:10:03;;;;;;;;;;;7.00;99.90;;;;;;5063640;28;20024;-76
2021/11/24 08:12:28;;;;;;;;;;;7.00;99.90;;;;;;5083599;28;19916;-76
2021/11/24 08:14:54;;;;;;;;;;;7.00;99.90;;;;;;5066816;28;20319;-76
2021/11/24 08:17:19;;;;;;;;;;;7.00;99.90;;;;;;5066339;28;20277;-76
2021/11/24 08:19:45;;;;;;;;;;;6.90;99.90;;;;;;5063007;28;19921;-76
2021/11/24 08:22:11;;;;;;;;;;;7.00;99.90;;;;;;5049600;28;19939;-76
2021/11/24 08:24:36;;;;;;;;;;;7.00;99.90;;;;;;5057033;28;20019;-76
2021/11/24 08:27:03;;;;;;;;;;;7.00;99.90;;;;;;5064306;28;19920;-76
2021/11/24 08:29:29;;;;;;;;;;;7.00;99.90;;;;;;5063828;28;19916;-76
2021/11/24 08:31:54;;;;;;;;;;;7.00;99.90;;;;;;5066461;28;19924;-77
2021/11/24 08:34:20;;;;;;;;;;;7.10;99.90;;;;;;5065034;28;19920;-76
2021/11/24 08:36:46;;;;;;;;;;;7.10;99.90;;;;;;5061030;28;19927;-76
2021/11/24 08:39:11;;;;;;;;;;;7.10;99.90;;;;;;5063445;28;20231;-76
2021/11/24 08:41:37;;;;;;;;;;;7.10;99.90;;;;;;5064048;28;20031;-76
2021/11/24 08:44:03;;;;;;;;;;;7.20;99.90;;;;;;5038951;28;20697;-76
2021/11/24 08:46:28;;;;;;;;;;;7.10;99.90;;;;;;5065659;28;19913;-76
2021/11/24 08:48:54;;;;;;;;;;;7.20;99.90;;;;;;5062082;28;20257;-76
2021/11/24 08:51:20;;;;;;;;;;;7.20;99.90;;;;;;5062432;28;19916;-76
2021/11/24 08:53:45;;;;;;;;;;;7.20;99.90;;;;;;5063310;28;19982;-76
2021/11/24 08:56:11;;;;;;;;;;;7.30;99.90;;;;;;5063230;28;20316;-76
2021/11/24 08:58:37;;;;;;;;;;;7.40;99.90;;;;;;5063431;28;19920;-76
2021/11/24 09:01:02;;;;;;;;;;;7.40;99.90;;;;;;5064927;28;19924;-76
2021/11/24 09:03:28;;;;;;;;;;;7.40;99.90;;;;;;5059205;28;19920;-76
2021/11/24 09:05:53;;;;;;;;;;;7.50;99.90;;;;;;5068405;28;20085;-76
2021/11/24 09:08:19;;;;;;;;;;;7.50;99.90;;;;;;5067300;28;19923;-76
2021/11/24 09:10:45;;;;;;;;;;;7.50;99.90;;;;;;5068987;28;19999;-76
2021/11/24 09:13:10;;;;;;;;;;;7.50;99.90;;;;;;5067308;28;19916;-77
2021/11/24 09:15:36;;;;;;;;;;;7.60;99.90;;;;;;5063905;28;19916;-77
2021/11/24 09:18:02;;;;;;;;;;;7.60;99.90;;;;;;5064178;28;20033;-76
2021/11/24 09:20:28;;;;;;;;;;;7.60;99.90;;;;;;5063347;28;19923;-76
2021/11/24 09:22:53;;;;;;;;;;;7.60;99.90;;;;;;5067959;28;19913;-77
2021/11/24 09:25:21;;;;;;;;;;;7.60;99.90;;;;;;5050638;28;19928;-77
2021/11/24 09:27:56;;;;;;;;;;;7.70;99.90;;;;;;5057398;28;19922;-78
2021/11/24 09:30:23;;;;;;;;;;;7.70;99.90;;;;;;5064409;28;20833;-77
2021/11/24 09:32:48;;;;;;;;;;;7.70;99.90;;;;;;5066866;28;20003;-77
2021/11/24 09:35:15;;;;;;;;;;;7.70;99.90;;;;;;5064734;28;20058;-76
2021/11/24 09:37:41;;;;;;;;;;;7.80;99.90;;;;;;5066898;28;19916;-76
2021/11/24 09:40:07;;;;;;;;;;;7.90;99.90;;;;;;5066650;28;19963;-76
2021/11/24 09:42:35;;;;;;;;;;;7.90;99.90;;;;;;5066555;28;19916;-76
2021/11/24 09:45:01;;;;;;;;;;;7.90;99.90;;;;;;5070123;28;19916;-77
2021/11/24 09:47:27;;;;;;;;;;;8.00;99.90;;;;;;5069288;28;20302;-76
2021/11/24 09:49:56;;;;;;;;;;;8.00;99.90;;;;;;5066918;28;19962;-76
2021/11/24 09:52:22;;;;;;;;;;;8.00;99.90;;;;;;5067091;28;19943;-77
2021/11/24 09:54:51;;;;;;;;;;;8.00;99.90;;;;;;5066899;28;19920;-77
2021/11/24 09:57:24;;;;;;;;;;;8.10;99.90;;;;;;5067936;28;19946;-77
2021/11/24 09:59:49;;;;;;;;;;;8.10;99.90;;;;;;5066102;28;19916;-76
2021/11/24 10:02:15;;;;;;;;;;;8.10;99.90;;;;;;5069834;28;19927;-76
2021/11/24 10:04:44;;;;;;;;;;;8.20;99.90;;;;;;5067865;28;19920;-77
2021/11/24 10:07:10;;;;;;;;;;;8.10;99.90;;;;;;5067099;28;19921;-76
2021/11/24 10:09:36;;;;;;;;;;;8.10;99.90;;;;;;5064596;28;19916;-77
2021/11/24 10:12:02;;;;;;;;;;;8.10;99.90;;;;;;5068977;28;21264;-76
2021/11/24 10:14:27;;;;;;;;;;;8.10;99.90;;;;;;5067928;28;20224;-77
2021/11/24 10:17:03;;;;;;;;;;;8.10;99.90;;;;;;5068337;28;19927;-77
2021/11/24 10:19:28;;;;;;;;;;;8.20;99.90;;;;;;5063868;28;19978;-77
2021/11/24 10:21:54;;;;;;;;;;;8.20;99.90;;;;;;5066559;28;19920;-76
2021/11/24 10:24:26;;;;;;;;;;;8.20;99.90;;;;;;5065166;28;19963;-76
2021/11/24 10:26:52;;;;;;;;;;;8.20;99.90;;;;;;5057190;28;19920;-77
2021/11/24 10:29:18;;;;;;;;;;;8.20;99.90;;;;;;5066172;28;19924;-76
2021/11/24 10:31:51;;;;;;;;;;;8.20;99.90;;;;;;5066342;28;19916;-76
2021/11/24 10:34:25;;;;;;;;;;;8.20;99.90;;;;;;5064080;28;19921;-76
2021/11/24 10:36:51;;;;;;;;;;;8.20;99.90;;;;;;5037020;28;19924;-76
2021/11/24 10:39:17;;;;;;;;;;;8.20;99.90;;;;;;5062163;28;20420;-77
2021/11/24 10:41:43;;;;;;;;;;;8.30;99.90;;;;;;5064364;28;19973;-77
2021/11/24 10:44:09;;;;;;;;;;;8.30;99.90;;;;;;5065686;28;19924;-76
2021/11/24 10:46:35;;;;;;;;;;;8.30;99.90;;;;;;5066815;28;20311;-76
2021/11/24 10:49:02;;;;;;;;;;;8.30;99.90;;;;;;5064270;28;19917;-76
2021/11/24 10:51:28;;;;;;;;;;;8.40;99.90;;;;;;5064295;28;20015;-76
2021/11/24 10:54:07;;;;;;;;;;;8.40;99.90;;;;;;5064098;28;20016;-77
2021/11/24 10:56:33;;;;;;;;;;;8.40;99.90;;;;;;5064204;28;19916;-76
2021/11/24 10:59:15;;;;;;;;;;;8.40;99.90;;;;;;5070057;28;19927;-77
2021/11/24 11:01:40;;;;;;;;;;;8.50;99.90;;;;;;5069128;28;19920;-77
2021/11/24 11:04:09;;;;;;;;;;;8.60;99.90;;;;;;5065580;28;19916;-81
2021/11/24 11:06:35;;;;;;;;;;;8.60;99.90;;;;;;5065855;28;19967;-77
2021/11/24 11:09:01;;;;;;;;;;;8.60;99.90;;;;;;5065165;28;20291;-76
2021/11/24 11:11:31;;;;;;;;;;;8.60;99.90;;;;;;5063016;28;20236;-76
2021/11/24 11:14:12;;;;;;;;;;;8.70;99.90;;;;;;5062858;28;19920;-76
2021/11/24 11:16:41;;;;;;;;;;;8.70;99.90;;;;;;5066890;28;20246;-76
2021/11/24 11:19:07;;;;;;;;;;;8.70;99.90;;;;;;5070188;28;19929;-76
2021/11/24 11:21:35;;;;;;;;;;;8.80;99.90;;;;;;5068292;28;19989;-77
2021/11/24 11:24:08;;;;;;;;;;;8.80;99.90;;;;;;5062748;28;19971;-76
2021/11/24 11:26:33;;;;;;;;;;;8.80;99.90;;;;;;5061291;28;19917;-76
2021/11/24 11:28:59;;;;;;;;;;;8.80;99.90;;;;;;5069682;28;19916;-77
2021/11/24 11:31:28;;;;;;;;;;;8.80;99.90;;;;;;5059442;28;19921;-76
2021/11/24 11:33:59;;;;;;;;;;;8.80;99.90;;;;;;5066703;28;20011;-76
2021/11/24 11:36:25;;;;;;;;;;;8.80;99.90;;;;;;5067554;28;19917;-76
2021/11/24 11:38:52;;;;;;;;;;;9.00;99.90;;;;;;5053003;28;20481;-76
2021/11/24 11:41:22;;;;;;;;;;;8.90;99.90;;;;;;5063502;28;20207;-76
2021/11/24 11:43:51;;;;;;;;;;;9.00;99.90;;;;;;5065076;28;19928;-76
2021/11/24 11:46:24;;;;;;;;;;;9.00;99.90;;;;;;5059363;28;19917;-76
2021/11/24 11:48:51;;;;;;;;;;;9.00;99.90;;;;;;5065573;28;19964;-79
2021/11/24 11:51:33;;;;;;;;;;;9.10;99.90;;;;;;5064785;28;19931;-76
2021/11/24 11:54:00;;;;;;;;;;;9.10;99.90;;;;;;5065543;28;19917;-76
2021/11/24 11:56:27;;;;;;;;;;;9.10;99.90;;;;;;5064761;28;19920;-76
2021/11/24 11:58:52;;;;;;;;;;;9.20;99.90;;;;;;5063116;28;19923;-76
2021/11/24 12:01:20;;;;;;;;;;;9.20;99.90;;;;;;5067339;28;19916;-76
2021/11/24 12:04:00;;;;;;;;;;;9.20;99.90;;;;;;5064060;28;20063;-76
2021/11/24 12:06:46;;;;;;;;;;;9.10;99.90;;;;;;5079423;28;19924;-76
2021/11/24 12:09:17;;;;;;;;;;;9.10;99.90;;;;;;5063071;28;19923;-76
2021/11/24 12:12:05;;;;;;;;;;;9.20;99.90;;;;;;5061768;28;19917;-76
2021/11/24 12:14:40;;;;;;;;;;;9.10;99.90;;;;;;5076006;28;19999;-76
2021/11/24 12:17:25;;;;;;;;;;;9.10;99.90;;;;;;5064177;28;19959;-76
2021/11/24 12:19:51;;;;;;;;;;;9.20;99.90;;;;;;5063425;28;19995;-76
2021/11/24 12:22:16;;;;;;;;;;;9.20;99.90;;;;;;5062686;28;19920;-76
2021/11/24 12:24:42;;;;;;;;;;;9.20;99.90;;;;;;5062527;28;19939;-76
2021/11/24 12:27:07;;;;;;;;;;;9.20;99.90;;;;;;5066046;28;19920;-76
2021/11/24 12:29:47;;;;;;;;;;;9.20;99.90;;;;;;5063902;28;19951;-77
2021/11/24 12:32:17;;;;;;;;;;;9.20;99.90;;;;;;5064097;28;20293;-75
2021/11/24 12:34:47;;;;;;;;;;;9.10;99.90;;;;;;5063118;28;19924;-76
2021/11/24 12:37:22;;;;;;;;;;;9.10;99.90;;;;;;5064229;28;19923;-75
2021/11/24 12:39:48;;;;;;;;;;;9.10;99.90;;;;;;5064599;28;19920;-76
2021/11/24 12:42:14;;;;;;;;;;;9.10;99.90;;;;;;5066636;28;19927;-76
2021/11/24 12:44:50;;;;;;;;;;;9.10;99.90;;;;;;5063344;28;19920;-76
2021/11/24 12:47:19;;;;;;;;;;;9.10;99.90;;;;;;5064082;28;20531;-75
2021/11/24 12:49:44;;;;;;;;;;;9.00;99.90;;;;;;5073914;28;19916;-76
2021/11/24 12:52:10;;;;;;;;;;;9.00;99.90;;;;;;5068566;28;19921;-76
2021/11/24 12:54:37;;;;;;;;;;;9.00;99.90;;;;;;5065925;28;19999;-76
2021/11/24 12:57:04;;;;;;;;;;;9.00;99.90;;;;;;5069867;28;19912;-76
2021/11/24 12:59:33;;;;;;;;;;;9.00;99.90;;;;;;5066562;28;19913;-76
2021/11/24 13:02:03;;;;;;;;;;;9.00;99.90;;;;;;5070163;28;20594;-76
2021/11/24 13:04:33;;;;;;;;;;;9.10;99.90;;;;;;5065052;28;20341;-76
2021/11/24 13:06:59;;;;;;;;;;;9.10;99.90;;;;;;5069950;28;19952;-76
2021/11/24 13:09:26;;;;;;;;;;;9.10;99.90;;;;;;5073944;28;20012;-76
2021/11/24 13:11:57;;;;;;;;;;;9.10;99.90;;;;;;5069923;28;19912;-76
2021/11/24 13:14:27;;;;;;;;;;;9.10;99.90;;;;;;5065270;28;19916;-76
2021/11/24 13:17:04;;;;;;;;;;;9.10;99.90;;;;;;5055532;28;19923;-76
2021/11/24 13:19:45;;;;;;;;;;;9.10;99.90;;;;;;5067233;28;20244;-76
2021/11/24 13:22:12;;;;;;;;;;;9.00;99.90;;;;;;5069633;28;19962;-76
2021/11/24 13:24:38;;;;;;;;;;;9.00;99.90;;;;;;5072150;28;19916;-76
2021/11/24 13:27:04;;;;;;;;;;;9.10;99.90;;;;;;5063104;28;20273;-78
2021/11/24 13:29:31;;;;;;;;;;;9.00;99.90;;;;;;5066176;28;19916;-77
2021/11/24 13:32:08;;;;;;;;;;;9.00;99.90;;;;;;5058599;28;19985;-76
2021/11/24 13:34:34;;;;;;;;;;;9.00;99.90;;;;;;5060469;28;19924;-77
2021/11/24 13:37:00;;;;;;;;;;;8.90;99.90;;;;;;5059386;28;19919;-76
2021/11/24 13:39:26;;;;;;;;;;;8.80;99.90;;;;;;5067962;28;20413;-80
2021/11/24 13:41:52;;;;;;;;;;;8.80;99.90;;;;;;5066685;28;19916;-76
2021/11/24 13:44:18;;;;;;;;;;;8.80;99.90;;;;;;5061964;28;19913;-76
2021/11/24 13:46:47;;;;;;;;;;;8.80;99.90;;;;;;5068032;28;19937;-76
2021/11/24 13:49:17;;;;;;;;;;;8.80;99.90;;;;;;5069516;28;19920;-76
2021/11/24 13:51:44;;;;;;;;;;;8.70;99.90;;;;;;5059538;28;19974;-76
2021/11/24 13:54:18;;;;;;;;;;;8.70;99.90;;;;;;5066128;28;19969;-76
2021/11/24 13:56:51;;;;;;;;;;;8.60;99.90;;;;;;5061504;28;20303;-76
2021/11/24 13:59:21;;;;;;;;;;;8.60;99.90;;;;;;5065698;28;20196;-79
2021/11/24 14:01:48;;;;;;;;;;;8.60;99.90;;;;;;5071325;28;20329;-83
2021/11/24 14:04:20;;;;;;;;;;;8.50;99.90;;;;;;5061038;28;19921;-79
2021/11/24 14:06:47;;;;;;;;;;;8.60;99.90;;;;;;5056985;28;19917;-77
2021/11/24 14:09:24;;;;;;;;;;;8.50;99.90;;;;;;5068580;28;19912;-76
2021/11/24 14:11:58;;;;;;;;;;;8.50;99.90;;;;;;5059269;28;19965;-76
2021/11/24 14:14:28;;;;;;;;;;;8.50;99.90;;;;;;5067387;28;20303;-76
2021/11/24 14:16:58;;;;;;;;;;;8.40;99.90;;;;;;5067687;28;19970;-76
2021/11/24 14:19:24;;;;;;;;;;;8.40;99.90;;;;;;5079671;28;19932;-76
2021/11/24 14:21:51;;;;;;;;;;;8.40;99.90;;;;;;5065481;28;19917;-77
2021/11/24 14:24:16;;;;;;;;;;;8.40;99.90;;;;;;5084773;28;19927;-77
2021/11/24 14:26:42;;;;;;;;;;;8.40;99.90;;;;;;5076149;28;20303;-77
2021/11/24 14:29:08;;;;;;;;;;;8.30;99.90;;;;;;5057639;28;20245;-76